Time;durP1;ratioP1;P1;durP2;ratioP2;P2;SDS_P1;SDS_P2;PMS_P1;PMS_P2;Temp;Humidity;BMP_temperature;BMP_pressure;BME280_temperature;BME280_humidity;BME280_pressure;Samples;Min_cycle;Max_cycle;Signal;HPM_P1;HPM_P2
2023/07/05 00:04:49;;;;;;;1999.90;999.90;;;18.20;99.90;;;;;;6722920;88;20193;-78
2023/07/05 00:14:49;;;;;;;1999.90;999.90;;;18.30;99.90;;;;;;6728643;88;20351;-79
2023/07/05 00:24:53;;;;;;;1999.90;999.90;;;18.20;99.90;;;;;;6731513;88;20215;-79
2023/07/05 00:34:53;;;;;;;1999.90;999.90;;;18.20;99.90;;;;;;6726025;88;20659;-79
2023/07/05 00:45:09;;;;;;;1999.90;999.90;;;18.00;99.90;;;;;;6722337;88;20201;-79
2023/07/05 00:55:09;;;;;;;;;;;18.00;99.90;;;;;;6688455;88;20200;-80
2023/07/05 01:05:11;;;;;;;1999.90;999.90;;;18.00;99.90;;;;;;6688593;88;20050;-79
2023/07/05 01:15:15;;;;;;;1999.90;999.90;;;18.00;99.90;;;;;;6687896;88;20646;-79
2023/07/05 01:25:16;;;;;;;1999.90;999.90;;;18.20;99.90;;;;;;6687611;88;20218;-79
2023/07/05 01:35:20;;;;;;;1999.90;999.90;;;18.30;99.90;;;;;;6687312;88;20303;-79
2023/07/05 01:45:47;;;;;;;1999.90;999.90;;;18.30;99.90;;;;;;6687067;88;20240;-78
2023/07/05 01:56:02;;;;;;;1999.90;999.90;;;18.30;99.90;;;;;;6685818;88;20334;-79
2023/07/05 02:06:04;;;;;;;1999.90;999.90;;;18.20;99.90;;;;;;6687772;88;20227;-78
2023/07/05 02:16:05;;;;;;;1999.90;999.90;;;18.10;99.90;;;;;;6692132;88;20240;-79
2023/07/05 02:26:06;;;;;;;1999.90;999.90;;;18.00;99.90;;;;;;6690620;89;20730;-79
2023/07/05 02:36:12;;;;;;;1999.90;999.90;;;17.90;99.90;;;;;;6688759;89;20222;-79
2023/07/05 02:46:13;;;;;;;1999.90;999.90;;;17.60;99.90;;;;;;6690975;88;20205;-77
2023/07/05 02:56:14;;;;;;;1999.90;999.90;;;17.20;99.90;;;;;;6698231;88;20577;-77
2023/07/05 03:06:15;;;;;;;1999.90;999.90;;;17.20;99.90;;;;;;6706545;88;20204;-76
2023/07/05 03:16:15;;;;;;;1999.90;999.90;;;16.70;99.90;;;;;;6709136;88;20191;-77
2023/07/05 03:26:16;;;;;;;1999.90;999.90;;;16.70;99.90;;;;;;6704614;88;20171;-77
2023/07/05 03:36:19;;;;;;;1999.90;999.90;;;16.50;99.90;;;;;;6704654;88;21072;-78
2023/07/05 03:46:19;;;;;;;1999.90;999.90;;;16.00;99.90;;;;;;6704819;88;20646;-78
2023/07/05 03:56:20;;;;;;;1999.90;999.90;;;15.90;99.90;;;;;;6703567;88;20326;-77
2023/07/05 04:06:23;;;;;;;1999.90;999.90;;;15.70;99.90;;;;;;6703610;88;20219;-78
2023/07/05 04:16:25;;;;;;;1999.90;999.90;;;15.30;99.90;;;;;;6724827;88;20178;-78
2023/07/05 04:26:28;;;;;;;1999.90;999.90;;;15.20;99.90;;;;;;6715112;88;20206;-78
2023/07/05 04:36:29;;;;;;;1999.90;999.90;;;15.10;99.90;;;;;;6708487;88;20184;-79
2023/07/05 04:46:30;;;;;;;1999.90;999.90;;;15.00;99.90;;;;;;6708543;88;20179;-78
2023/07/05 04:56:30;;;;;;;1999.90;999.90;;;15.00;99.90;;;;;;6707082;88;20228;-77
2023/07/05 05:06:31;;;;;;;1999.90;999.90;;;14.70;99.90;;;;;;6703039;88;20211;-77
2023/07/05 05:16:32;;;;;;;1999.90;999.90;;;14.80;99.90;;;;;;6710585;88;20181;-77
2023/07/05 05:26:32;;;;;;;1999.90;999.90;;;14.80;99.90;;;;;;6710846;88;20612;-77
2023/07/05 05:36:33;;;;;;;1999.90;999.90;;;14.90;99.90;;;;;;6700884;88;20197;-77
2023/07/05 05:46:33;;;;;;;1999.90;999.90;;;15.00;99.90;;;;;;6716987;88;20207;-77
2023/07/05 05:56:34;;;;;;;1999.90;999.90;;;15.50;99.90;;;;;;6705540;88;20215;-77
2023/07/05 06:06:34;;;;;;;1999.90;999.90;;;15.40;99.90;;;;;;6698439;88;20229;-77
2023/07/05 06:16:35;;;;;;;1999.90;999.90;;;15.40;99.90;;;;;;6699031;88;20720;-78
2023/07/05 06:26:35;;;;;;;1999.90;999.90;;;15.50;99.90;;;;;;6701283;88;20660;-75
2023/07/05 06:36:36;;;;;;;1999.90;999.90;;;16.10;99.90;;;;;;6692808;88;20210;-75
2023/07/05 06:46:36;;;;;;;1999.90;999.90;;;16.50;99.90;;;;;;6700323;88;20209;-79
2023/07/05 06:56:37;;;;;;;1999.90;999.90;;;16.70;99.90;;;;;;6696704;88;20221;-78
2023/07/05 07:06:37;;;;;;;1999.90;999.90;;;16.30;99.90;;;;;;6708210;88;20206;-78
2023/07/05 07:16:38;;;;;;;1999.90;999.90;;;16.80;99.90;;;;;;6709126;88;20221;-77
2023/07/05 07:26:38;;;;;;;1999.90;999.90;;;17.50;99.90;;;;;;6707013;88;20353;-78
2023/07/05 07:36:39;;;;;;;1999.90;999.90;;;17.30;99.90;;;;;;6704298;88;20190;-79
2023/07/05 07:46:40;;;;;;;1999.90;999.90;;;16.80;99.90;;;;;;6711544;88;20242;-78
2023/07/05 07:56:42;;;;;;;1999.90;999.90;;;16.30;99.90;;;;;;6702240;88;20602;-78
2023/07/05 08:06:52;;;;;;;1999.90;999.90;;;16.40;99.90;;;;;;6712586;88;20674;-78
2023/07/05 08:16:53;;;;;;;1999.90;999.90;;;17.60;99.90;;;;;;6722885;88;20175;-78
2023/07/05 08:26:54;;;;;;;1999.90;999.90;;;18.00;99.90;;;;;;6714347;88;20338;-78
2023/07/05 08:36:55;;;;;;;1999.90;999.90;;;17.60;99.90;;;;;;6708987;88;20203;-78
2023/07/05 08:47:03;;;;;;;1999.90;999.90;;;17.50;99.90;;;;;;6706773;88;20586;-78
2023/07/05 08:57:12;;;;;;;1999.90;999.90;;;17.90;99.90;;;;;;6706693;88;20298;-78
2023/07/05 09:07:37;;;;;;;1999.90;999.90;;;18.70;99.90;;;;;;6705059;88;20303;-77
2023/07/05 09:18:00;;;;;;;1999.90;999.90;;;19.00;99.90;;;;;;6707164;88;20664;-79
2023/07/05 09:28:29;;;;;;;1999.90;999.90;;;18.40;99.90;;;;;;6715308;88;20225;-78
2023/07/05 09:38:34;;;;;;;1999.90;999.90;;;19.30;99.90;;;;;;6709785;88;20213;-79
2023/07/05 09:48:42;;;;;;;1999.90;999.90;;;19.40;99.90;;;;;;6712274;88;20178;-79
2023/07/05 09:58:44;;;;;;;1999.90;999.90;;;19.80;98.00;;;;;;6714950;88;20186;-79
2023/07/05 10:08:46;;;;;;;1999.90;999.90;;;19.30;98.50;;;;;;6714694;88;20202;-79
2023/07/05 10:18:47;;;;;;;1999.90;999.90;;;20.50;96.70;;;;;;6714397;88;20942;-81
2023/07/05 10:28:47;;;;;;;1999.90;999.90;;;21.30;94.80;;;;;;6712455;88;20264;-80
2023/07/05 10:38:50;;;;;;;1999.90;999.90;;;21.40;94.80;;;;;;6713447;88;20182;-80
2023/07/05 10:48:52;;;;;;;1999.90;999.90;;;22.00;92.80;;;;;;6697026;89;20552;-82
2023/07/05 10:59:01;;;;;;;1999.90;999.90;;;21.50;92.10;;;;;;6698313;89;20799;-81
2023/07/05 11:09:03;;;;;;;1999.90;999.90;;;21.80;91.80;;;;;;6698041;89;20231;-79
2023/07/05 11:19:10;;;;;;;1999.90;999.90;;;21.70;90.40;;;;;;6696912;89;20190;-79
2023/07/05 11:29:32;;;;;;;1999.90;999.90;;;22.40;90.30;;;;;;6696378;88;20278;-79
2023/07/05 11:39:34;;;;;;;1999.90;999.90;;;22.10;91.30;;;;;;6699651;88;20186;-81
2023/07/05 11:49:38;;;;;;;1999.90;999.90;;;21.80;89.60;;;;;;6704304;88;20178;-83
2023/07/05 11:59:51;;;;;;;1999.90;999.90;;;21.30;90.40;;;;;;6705732;88;20239;-82
2023/07/05 12:09:55;;;;;;;1999.90;999.90;;;21.10;91.30;;;;;;6705799;88;20240;-81
2023/07/05 12:19:57;;;;;;;1999.90;999.90;;;22.30;91.30;;;;;;6710683;88;20265;-81
2023/07/05 12:30:00;;;;;;;1999.90;999.90;;;21.10;92.40;;;;;;6707165;88;20208;-81
2023/07/05 12:40:33;;;;;;;1999.90;999.90;;;20.40;92.80;;;;;;6711955;88;20179;-81
2023/07/05 12:50:33;;;;;;;1999.90;999.90;;;21.00;93.70;;;;;;6705151;88;20208;-80
2023/07/05 13:00:49;;;;;;;1999.90;999.90;;;21.20;93.20;;;;;;6708745;88;20154;-81
2023/07/05 13:10:53;;;;;;;1999.90;999.90;;;20.80;93.20;;;;;;6708747;88;20194;-80
2023/07/05 13:21:14;;;;;;;1999.90;999.90;;;21.60;93.00;;;;;;6707614;88;20234;-81
2023/07/05 13:31:19;;;;;;;1999.90;999.90;;;22.60;92.20;;;;;;6709476;88;20664;-82
2023/07/05 13:41:25;;;;;;;1999.90;999.90;;;21.80;94.40;;;;;;6710604;88;20667;-82
2023/07/05 13:51:29;;;;;;;1999.90;999.90;;;20.30;98.60;;;;;;6712165;88;20749;-85
2023/07/05 14:01:32;;;;;;;1999.90;999.90;;;21.30;96.30;;;;;;6704759;88;20198;-79
2023/07/05 14:11:39;;;;;;;1999.90;999.90;;;20.80;96.60;;;;;;6694066;89;20194;-82
2023/07/05 14:21:40;;;;;;;1999.90;999.90;;;20.80;97.20;;;;;;6701852;89;20268;-80
2023/07/05 14:31:42;;;;;;;1999.90;999.90;;;19.60;99.90;;;;;;6694007;89;20198;-80
2023/07/05 14:41:42;;;;;;;1999.90;999.90;;;19.30;99.90;;;;;;6698353;89;20211;-80
2023/07/05 14:51:43;;;;;;;1999.90;999.90;;;19.10;99.90;;;;;;6697142;89;20338;-80
2023/07/05 15:01:44;;;;;;;1999.90;999.90;;;20.00;99.90;;;;;;6700721;88;20301;-81
2023/07/05 15:11:45;;;;;;;1999.90;999.90;;;20.10;99.90;;;;;;6701565;88;20216;-81
2023/07/05 15:21:49;;;;;;;1999.90;999.90;;;19.70;99.90;;;;;;6703725;88;20298;-82
2023/07/05 15:31:50;;;;;;;1999.90;999.90;;;19.80;99.90;;;;;;6703656;88;20206;-84
2023/07/05 15:41:51;;;;;;;1999.90;999.90;;;20.10;99.90;;;;;;6698636;88;20195;-79
2023/07/05 15:51:51;;;;;;;1999.90;999.90;;;21.10;99.90;;;;;;6696923;88;20266;-79
2023/07/05 16:01:55;;;;;;;1999.90;999.90;;;20.00;99.90;;;;;;6696221;88;20233;-77
2023/07/05 16:11:56;;;;;;;1999.90;999.90;;;19.60;99.90;;;;;;6729733;88;20298;-80
2023/07/05 16:21:56;;;;;;;1999.90;999.90;;;19.70;99.90;;;;;;6715521;88;20725;-78
2023/07/05 16:31:58;;;;;;;1999.90;999.90;;;19.30;99.90;;;;;;6698237;88;20247;-80
2023/07/05 16:41:59;;;;;;;1999.90;999.90;;;19.60;99.90;;;;;;6714340;88;20259;-80
2023/07/05 16:52:00;;;;;;;1999.90;999.90;;;20.10;99.90;;;;;;6702744;88;20186;-79
2023/07/05 17:02:01;;;;;;;1999.90;999.90;;;20.00;99.90;;;;;;6709802;88;20313;-80
2023/07/05 17:12:01;;;;;;;1999.90;999.90;;;20.00;99.90;;;;;;6707865;88;20268;-80
2023/07/05 17:22:02;;;;;;;1999.90;999.90;;;19.70;99.90;;;;;;6701613;88;20194;-79
2023/07/05 17:32:03;;;;;;;1999.90;999.90;;;19.40;99.90;;;;;;6720926;88;20602;-81
2023/07/05 17:42:05;;;;;;;1999.90;999.90;;;19.30;99.90;;;;;;6722589;88;20191;-80
2023/07/05 17:52:06;;;;;;;1999.90;999.90;;;18.90;99.90;;;;;;6714604;88;20195;-80
2023/07/05 18:02:11;;;;;;;1999.90;999.90;;;19.00;99.90;;;;;;6715352;88;20209;-79
2023/07/05 18:12:11;;;;;;;1999.90;999.90;;;19.50;99.90;;;;;;6707443;88;20174;-80
2023/07/05 18:22:13;;;;;;;1999.90;999.90;;;19.50;99.90;;;;;;6715192;88;20619;-79
2023/07/05 18:32:13;;;;;;;1999.90;999.90;;;19.40;99.90;;;;;;6718013;88;20660;-79
2023/07/05 18:42:14;;;;;;;1999.90;999.90;;;19.30;99.90;;;;;;6710674;88;20191;-81
2023/07/05 18:52:14;;;;;;;1999.90;999.90;;;19.20;99.90;;;;;;6695856;88;20203;-80
2023/07/05 19:02:15;;;;;;;1999.90;999.90;;;19.20;99.90;;;;;;6697861;88;20233;-81
2023/07/05 19:12:16;;;;;;;1999.90;999.90;;;18.80;99.90;;;;;;6701977;88;20207;-80
2023/07/05 19:22:16;;;;;;;1999.90;999.90;;;18.50;99.90;;;;;;6707160;88;20194;-81
2023/07/05 19:32:17;;;;;;;1999.90;999.90;;;18.30;99.90;;;;;;6705306;88;20199;-79
2023/07/05 19:42:17;;;;;;;1999.90;999.90;;;18.10;99.90;;;;;;6717815;88;20859;-78
2023/07/05 19:52:18;;;;;;;1999.90;999.90;;;18.20;99.90;;;;;;6709462;88;20209;-78
2023/07/05 20:02:19;;;;;;;1999.90;999.90;;;18.10;99.90;;;;;;6709551;88;20701;-78
2023/07/05 20:12:21;;;;;;;1999.90;999.90;;;18.00;99.90;;;;;;6708983;88;20215;-79
2023/07/05 20:22:22;;;;;;;1999.90;999.90;;;18.00;99.90;;;;;;6700260;88;20358;-78
2023/07/05 20:32:22;;;;;;;1999.90;999.90;;;17.90;99.90;;;;;;6707272;88;20691;-79
2023/07/05 20:42:23;;;;;;;1999.90;999.90;;;17.80;99.90;;;;;;6710019;88;20191;-79
2023/07/05 20:52:23;;;;;;;1999.90;999.90;;;17.40;99.90;;;;;;6720917;88;20182;-78
2023/07/05 21:02:24;;;;;;;1999.90;999.90;;;17.20;99.90;;;;;;6706151;88;20216;-77
2023/07/05 21:12:25;;;;;;;1999.90;999.90;;;17.20;99.90;;;;;;6704782;88;20198;-78
2023/07/05 21:22:26;;;;;;;1999.90;999.90;;;17.00;99.90;;;;;;6703572;88;20317;-77
2023/07/05 21:32:27;;;;;;;1999.90;999.90;;;16.70;99.90;;;;;;6705528;88;20222;-76
2023/07/05 21:42:28;;;;;;;1999.90;999.90;;;16.40;99.90;;;;;;6701852;88;20304;-77
2023/07/05 21:52:28;;;;;;;1999.90;999.90;;;16.30;99.90;;;;;;6703815;88;20713;-78
2023/07/05 22:02:30;;;;;;;1999.90;999.90;;;16.20;99.90;;;;;;6701547;88;20785;-78
2023/07/05 22:12:30;;;;;;;1999.90;999.90;;;16.30;99.90;;;;;;6700613;88;20754;-78
2023/07/05 22:22:31;;;;;;;1999.90;999.90;;;16.10;99.90;;;;;;6692679;88;20379;-78
2023/07/05 22:32:31;;;;;;;1999.90;999.90;;;16.10;99.90;;;;;;6690912;88;20279;-78
2023/07/05 22:42:32;;;;;;;1999.90;999.90;;;15.90;99.90;;;;;;6683863;89;20775;-78
2023/07/05 22:52:32;;;;;;;1999.90;999.90;;;15.80;99.90;;;;;;6687514;89;20202;-78
2023/07/05 23:02:33;;;;;;;1999.90;999.90;;;15.60;99.90;;;;;;6686711;88;20190;-77
2023/07/05 23:12:33;;;;;;;1999.90;999.90;;;15.50;99.90;;;;;;6702963;88;21004;-77
2023/07/05 23:22:34;;;;;;;1999.90;999.90;;;15.40;99.90;;;;;;6696846;88;20351;-78
2023/07/05 23:32:35;;;;;;;1999.90;999.90;;;15.30;99.90;;;;;;6711780;88;20198;-77
2023/07/05 23:42:37;;;;;;;1999.90;999.90;;;15.20;99.90;;;;;;6708966;88;20202;-77
2023/07/05 23:52:39;;;;;;;1999.90;999.90;;;15.10;99.90;;;;;;6702364;88;20335;-77
